Dodgeville, WI (53533)

5:49 PM CDT on August 24, 2016 (GMT -0500)
Iowa County | | Change Station

Elev 1168 ft 42.89 °N, 90.23 °W | Updated 19 minutes ago

Mostly Cloudy
Mostly Cloudy
82 °F
Feels Like 88 °F
N
8
Wind Variable Wind from WSW

Today
High -- | Low -- °F
--% Chance of Precip.
Yesterday
High -- | Low -- °F
Precip. -- in
Pressure 29.94 in
Visibility 10.0 miles
Clouds Mostly Cloudy 2800 ft
Mostly Cloudy 3600 ft
Mostly Cloudy 4500 ft
Heat Index 88 °F
Dew Point 73 °F
Humidity 74%
Rainfall 1.58 in
Snow Depth Not available.
6:16 AM 7:47 PM
Waning Gibbous, 52% visible
METAR KMRJ 242230Z AUTO 25007KT 10SM BKN028 BKN036 BKN045 28/23 A2994 RMK AO2
Pressure 29.94 in
Visibility 10.0 miles
Clouds Mostly Cloudy 2800 ft
Mostly Cloudy 3600 ft
Mostly Cloudy 4500 ft
Heat Index 88 °F
Dew Point 73 °F
Humidity 74%
Rainfall 1.58 in
Snow Depth Not available.
6:16 AM 7:47 PM
Waning Gibbous, 52% visible
METAR KMRJ 242230Z AUTO 25007KT 10SM BKN028 BKN036 BKN045 28/23 A2994 RMK AO2

10-Day Weather Forecast

Almanac

Astronomy

Aug. 24, 2016 Rise Set
Actual Time
Civil Twilight
Nautical Twilight
Astronomical Twilight
Moon
Length of Visible Light
Length of Day
Tomorrow will be .
, % of the Moon is Illuminated

Today's Extremes

State Highs State Lows

Community

WunderPhotos

Upload Photos

1,934,728 photos uploaded!

WunderBlog® & News

Nearby

Air Quality

  Air Quality AQ Index Pollutant
Not available.

Snow Depth

Station Depth Elevation

Earthquake Activity

City Distance Mag. Time & Date
Minimum magnitude displayed is 2.5.

Coastal Water Temperatures

Place Temperature

Stations

Nearby Weather Stations

Station Location Temp. Windchill Dew Point Humidity Wind Precip. Elev Updated Type
                   

Watches & Warnings

There are currently no watches in effect.